Time;durP1;ratioP1;P1;durP2;ratioP2;P2;SDS_P1;SDS_P2;PMS_P1;PMS_P2;Temp;Humidity;BMP_temperature;BMP_pressure;BME280_temperature;BME280_humidity;BME280_pressure;Samples;Min_cycle;Max_cycle;Signal;HPM_P1;HPM_P2
2022/01/19 00:00:21;;;;;;;78.80;39.40;;;;;;;0.69;76.99;102073.51;108543;1273;21988;-82
2022/01/19 00:03:10;;;;;;;76.30;40.10;;;;;;;0.72;76.95;102070.44;108609;1276;22016;-81
2022/01/19 00:05:44;;;;;;;78.20;41.10;;;;;;;0.76;77.06;102072.54;108472;1276;23647;-81
2022/01/19 00:08:21;;;;;;;73.30;41.00;;;;;;;0.79;77.01;102066.87;108218;1282;22459;-81
2022/01/19 00:11:17;;;;;;;64.10;34.30;;;;;;;0.81;77.01;102066.94;108344;1282;22329;-81
2022/01/19 00:13:53;;;;;;;69.90;36.80;;;;;;;0.86;77.09;102066.23;108210;1282;23106;-81
2022/01/19 00:16:24;;;;;;;64.70;34.80;;;;;;;0.89;76.99;102070.77;108235;1282;22001;-82
2022/01/19 00:18:59;;;;;;;68.20;36.40;;;;;;;0.92;76.98;102069.79;108219;1282;22001;-83
2022/01/19 00:21:55;;;;;;;;;;;;;;;;;;;;;
2022/01/19 00:24:38;;;;;;;58.80;32.10;;;;;;;0.93;76.93;102061.59;108971;1273;23758;-81
2022/01/19 00:27:11;;;;;;;57.10;31.30;;;;;;;0.93;76.88;102056.21;109533;1264;21974;-81
2022/01/19 00:29:41;;;;;;;55.90;30.60;;;;;;;0.95;76.87;102049.52;108980;1270;22798;-82
2022/01/19 00:32:16;;;;;;;56.90;28.40;;;;;;;0.98;76.85;102042.64;109047;1267;21981;-81
2022/01/19 00:34:45;;;;;;;52.10;28.00;;;;;;;0.99;76.78;102038.80;108606;1275;23710;-81
2022/01/19 00:37:15;;;;;;;51.80;28.20;;;;;;;0.99;76.72;102033.94;108594;1273;21996;-81
2022/01/19 00:39:57;;;;;;;46.90;26.00;;;;;;;1.01;76.82;102035.45;108583;1274;22463;-82
2022/01/19 00:42:34;;;;;;;47.70;27.10;;;;;;;1.03;76.88;102034.11;108751;1273;22165;-82
2022/01/19 00:45:08;;;;;;;54.10;29.00;;;;;;;1.05;76.80;102031.76;108963;1276;23120;-82
2022/01/19 00:48:02;;;;;;;58.80;28.30;;;;;;;1.08;76.80;102038.05;108971;1267;22032;-81
2022/01/19 00:50:44;;;;;;;50.30;26.80;;;;;;;1.11;76.66;102039.33;109317;1266;21982;-82
2022/01/19 00:53:20;;;;;;;45.10;24.80;;;;;;;1.11;76.57;102041.41;109492;1263;21982;-81
2022/01/19 00:55:56;;;;;;;46.80;24.90;;;;;;;1.10;76.45;102043.17;109432;1263;21995;-81
2022/01/19 00:58:35;;;;;;;50.80;25.80;;;;;;;1.10;76.37;102039.88;110117;1259;21986;-79
2022/01/19 01:01:08;;;;;;;40.60;23.30;;;;;;;1.11;76.40;102037.60;109832;1259;21971;-81
2022/01/19 01:03:52;;;;;;;43.10;23.60;;;;;;;1.14;76.46;102028.09;109975;1261;21995;-80
2022/01/19 01:06:30;;;;;;;39.70;21.10;;;;;;;1.17;76.48;102021.70;110626;1258;22305;-81
2022/01/19 01:09:07;;;;;;;37.50;20.80;;;;;;;1.19;76.42;102017.29;110251;1260;21973;-81
2022/01/19 01:12:10;;;;;;;39.90;21.10;;;;;;;1.19;76.23;102016.95;109157;1267;23709;-80
2022/01/19 01:20:28;;;;;;;40.40;18.80;;;;;;;1.21;76.23;102011.33;109025;1267;22440;-82
2022/01/19 01:22:57;;;;;;;33.80;18.30;;;;;;;1.23;76.29;102008.11;109069;1270;23770;-81
2022/01/19 01:25:28;;;;;;;36.00;17.80;;;;;;;1.23;76.00;101999.60;109087;1270;22003;-82
2022/01/19 01:28:01;;;;;;;30.00;16.50;;;;;;;1.23;76.06;101988.34;109239;1269;21986;-81
2022/01/19 01:30:31;;;;;;;30.80;17.50;;;;;;;1.24;76.10;101975.92;108989;1269;21989;-82
2022/01/19 01:33:11;;;;;;;36.60;17.10;;;;;;;1.27;76.21;101969.77;109534;1263;22228;-82
2022/01/19 01:35:41;;;;;;;35.90;17.50;;;;;;;1.30;76.25;101964.24;109162;1262;23716;-81
2022/01/19 01:38:15;;;;;;;28.20;17.10;;;;;;;1.30;76.11;101962.47;108997;1268;23667;-82
2022/01/19 01:41:12;;;;;;;29.70;18.10;;;;;;;1.31;76.12;101955.16;109043;1267;22046;-82
2022/01/19 01:43:45;;;;;;;25.70;15.00;;;;;;;1.30;76.07;101949.97;109216;1270;22014;-81
2022/01/19 01:46:34;;;;;;;30.20;15.10;;;;;;;1.34;76.13;101947.53;108613;1273;22001;-82
2022/01/19 01:49:23;;;;;;;29.40;15.30;;;;;;;1.37;76.13;101927.62;108722;1274;21992;-80
2022/01/19 01:54:44;;;;;;;28.90;14.30;;;;;;;1.43;76.05;101918.70;109046;1267;21989;-82
2022/01/19 01:57:16;;;;;;;26.20;14.80;;;;;;;1.46;76.14;101909.17;108758;1270;22539;-82
2022/01/19 01:59:48;;;;;;;21.10;13.00;;;;;;;1.49;76.13;101898.95;108990;1267;24031;-82
2022/01/19 02:02:39;;;;;;;;;;;;;;;;;;;;;
2022/01/19 02:05:13;;;;;;;27.50;14.70;;;;;;;1.52;75.96;101891.69;110130;1257;22766;-83
2022/01/19 02:10:33;;;;;;;20.60;11.90;;;;;;;1.55;75.97;101897.30;110200;1260;21974;-82
2022/01/19 02:21:46;;;;;;;22.90;12.50;;;;;;;1.60;75.86;101898.93;109276;1267;23053;-81
2022/01/19 02:24:20;;;;;;;23.90;14.70;;;;;;;1.60;75.90;101886.95;109280;1266;23718;-81
2022/01/19 02:27:01;;;;;;;20.70;13.40;;;;;;;1.61;75.87;101879.13;109226;1267;22732;-82
2022/01/19 02:41:01;;;;;;;19.60;10.80;;;;;;;1.69;76.06;101843.64;110293;1251;21979;-79
2022/01/19 02:43:31;;;;;;;22.30;10.90;;;;;;;1.69;75.90;101834.27;110597;1254;22032;-81
2022/01/19 02:51:49;;;;;;;19.70;11.90;;;;;;;1.72;76.03;101813.63;109884;1260;21994;-81
2022/01/19 02:54:25;;;;;;;19.10;11.80;;;;;;;1.72;75.98;101809.30;109457;1262;23637;-82
2022/01/19 02:56:58;;;;;;;21.80;12.80;;;;;;;1.72;75.98;101808.77;109577;1262;23880;-82
2022/01/19 03:00:00;;;;;;;17.70;12.00;;;;;;;1.74;76.06;101802.44;109649;1263;21982;-81
2022/01/19 03:08:47;;;;;;;20.30;13.20;;;;;;;1.74;76.19;101787.65;110747;1257;21971;-82
2022/01/19 03:11:28;;;;;;;22.50;13.50;;;;;;;1.74;76.13;101783.30;110204;1259;23729;-81
2022/01/19 03:13:58;;;;;;;22.60;14.80;;;;;;;1.77;76.17;101778.48;110043;1257;21975;-82
2022/01/19 03:16:43;;;;;;;24.30;14.90;;;;;;;1.78;76.13;101772.86;110549;1253;21964;-81
2022/01/19 03:19:16;;;;;;;25.90;13.70;;;;;;;1.80;76.05;101772.08;110556;1251;23032;-81
2022/01/19 03:22:04;;;;;;;;;;;;;;;;;;;;;
2022/01/19 03:24:38;;;;;;;28.00;16.00;;;;;;;1.84;76.20;101772.72;110183;1259;21963;-81
2022/01/19 03:27:14;;;;;;;22.30;14.40;;;;;;;1.86;76.15;101773.66;110381;1257;23163;-80
2022/01/19 03:29:46;;;;;;;33.60;22.10;;;;;;;1.88;76.16;101773.05;109437;1263;22043;-81
2022/01/19 03:32:16;;;;;;;50.80;32.80;;;;;;;1.91;76.16;101775.31;109776;1263;22138;-81
2022/01/19 03:34:49;;;;;;;56.00;34.60;;;;;;;1.93;76.06;101770.72;109677;1263;22067;-81
2022/01/19 03:37:20;;;;;;;63.30;41.20;;;;;;;1.93;75.93;101766.72;109736;1264;22002;-81
2022/01/19 03:39:54;;;;;;;42.80;33.50;;;;;;;1.93;75.81;101763.28;109666;1260;22149;-81
2022/01/19 03:42:29;;;;;;;27.90;21.20;;;;;;;1.92;75.87;101759.69;109386;1262;23043;-81
2022/01/19 03:45:06;;;;;;;23.90;16.80;;;;;;;1.91;76.04;101754.83;109484;1263;23074;-80
2022/01/19 03:47:44;;;;;;;24.10;14.70;;;;;;;1.89;75.90;101746.93;109738;1257;22071;-81
2022/01/19 03:50:21;;;;;;;23.40;15.70;;;;;;;1.89;76.08;101744.18;110107;1257;21968;-81
2022/01/19 03:53:01;;;;;;;25.10;15.90;;;;;;;1.87;76.07;101741.11;110123;1258;23054;-81
2022/01/19 03:55:34;;;;;;;21.50;14.80;;;;;;;1.87;76.06;101737.31;110103;1257;23733;-80
2022/01/19 03:58:24;;;;;;;;;;;;;;;1.86;76.16;101740.29;110320;1257;22526;-81
2022/01/19 04:00:58;;;;;;;;;;;;;;;1.82;76.42;101739.84;110049;1257;23583;-80
2022/01/19 04:06:50;;;;;;;26.60;15.80;;;;;;;1.80;76.54;101741.69;110225;1256;21975;-81
2022/01/19 04:09:25;;;;;;;29.70;16.40;;;;;;;1.85;76.60;101733.44;110564;1257;23601;-81
2022/01/19 04:12:01;;;;;;;20.90;16.40;;;;;;;1.88;76.46;101729.29;110132;1263;23859;-82
2022/01/19 04:14:34;;;;;;;22.50;16.90;;;;;;;1.90;76.41;101724.14;109964;1263;21973;-81
2022/01/19 04:17:17;;;;;;;21.20;13.30;;;;;;;1.95;76.44;101724.44;109927;1262;23743;-81
2022/01/19 04:19:48;;;;;;;22.10;13.40;;;;;;;1.98;76.47;101721.68;110082;1259;23676;-80
2022/01/19 04:22:36;;;;;;;17.10;12.20;;;;;;;1.99;76.46;101719.52;110409;1257;21970;-81
2022/01/19 04:25:08;;;;;;;18.10;13.70;;;;;;;2.00;76.30;101719.30;110003;1259;243144;-81
2022/01/19 04:27:37;;;;;;;19.70;13.60;;;;;;;2.01;76.41;101716.09;110354;1257;22041;-81
2022/01/19 04:30:12;;;;;;;20.50;14.20;;;;;;;2.03;76.36;101713.20;110306;1251;23713;-81
2022/01/19 04:35:26;;;;;;;20.10;14.70;;;;;;;2.04;76.26;101701.03;110380;1257;23037;-82
2022/01/19 04:38:51;;;;;;;25.00;16.20;;;;;;;2.04;76.29;101696.83;110153;1257;21986;-81
2022/01/19 05:05:34;;;;;;;22.90;16.50;;;;;;;2.02;76.49;101673.52;108820;1272;22051;-82
2022/01/19 05:08:23;;;;;;;23.70;16.20;;;;;;;1.99;76.57;101674.67;108982;1267;23683;-82
2022/01/19 05:13:50;;;;;;;25.10;15.90;;;;;;;2.03;76.56;101661.96;109415;1263;22279;-82
2022/01/19 05:16:23;;;;;;;23.70;16.00;;;;;;;2.03;76.62;101664.77;109279;1265;23621;-81
2022/01/19 05:18:53;;;;;;;22.60;16.10;;;;;;;2.03;76.70;101662.48;109592;1262;21981;-81
2022/01/19 05:21:24;;;;;;;25.50;18.80;;;;;;;2.06;76.79;101657.61;109387;1263;23058;-81
2022/01/19 05:24:22;;;;;;;21.80;16.60;;;;;;;2.09;76.77;101650.00;109034;1270;22988;-79
2022/01/19 05:27:22;;;;;;;29.50;20.90;;;;;;;2.08;76.68;101648.32;108856;1269;21981;-80
2022/01/19 05:29:52;;;;;;;28.30;18.30;;;;;;;2.09;76.84;101646.36;109933;1260;24369;-80
2022/01/19 05:32:36;;;;;;;26.90;18.40;;;;;;;2.12;76.92;101645.13;109712;1260;22028;-81
2022/01/19 05:35:24;;;;;;;29.00;18.70;;;;;;;2.12;76.77;101638.34;109611;1263;22436;-81
2022/01/19 05:38:25;;;;;;;;;;;;;;;;;;;;;
2022/01/19 05:41:18;;;;;;;30.60;18.80;;;;;;;2.12;77.03;101629.34;109778;1257;23767;-80
2022/01/19 05:43:52;;;;;;;27.10;19.30;;;;;;;2.14;77.00;101629.42;110009;1260;21975;-82
2022/01/19 05:46:26;;;;;;;27.30;20.10;;;;;;;2.16;77.11;101629.48;110630;1257;22150;-82
2022/01/19 05:49:10;;;;;;;;;;;;;;;;;;;;;
2022/01/19 05:51:40;;;;;;;;;;;;;;;2.17;77.11;101624.88;109788;1263;23828;-83
2022/01/19 05:54:18;;;;;;;;;;;;;;;2.17;77.36;101626.66;109388;1270;21970;-82
2022/01/19 05:56:49;;;;;;;25.20;18.00;;;;;;;2.14;77.43;101629.05;109304;1270;21992;-82
2022/01/19 05:59:29;;;;;;;30.70;18.90;;;;;;;2.18;77.45;101628.33;109273;1268;21985;-81
2022/01/19 06:02:07;;;;;;;34.90;24.70;;;;;;;2.23;77.36;101627.18;109302;1267;22768;-81
2022/01/19 06:04:36;;;;;;;;;;;;;;;2.28;77.29;101628.83;109307;1270;21974;-81
2022/01/19 06:07:41;;;;;;;32.00;24.80;;;;;;;2.26;77.40;101626.99;109247;1269;22991;-82
2022/01/19 06:10:43;;;;;;;28.90;22.40;;;;;;;2.31;77.50;101627.09;109354;1265;23021;-82
2022/01/19 06:13:21;;;;;;;37.90;25.50;;;;;;;2.37;77.42;101628.85;109377;1263;22093;-82
2022/01/19 06:15:53;;;;;;;41.40;30.20;;;;;;;2.41;77.23;101626.20;109475;1263;22012;-82
2022/01/19 06:18:29;;;;;;;71.40;50.70;;;;;;;2.45;77.13;101622.17;109603;1265;23768;-82
2022/01/19 06:21:16;;;;;;;46.30;34.40;;;;;;;2.47;77.04;101615.42;109448;1264;23616;-84
2022/01/19 06:23:56;;;;;;;40.70;33.30;;;;;;;2.46;76.86;101611.34;109873;1260;22756;-83
2022/01/19 06:26:29;;;;;;;37.60;27.50;;;;;;;2.47;76.96;101603.60;110215;1260;23647;-81
2022/01/19 06:28:59;;;;;;;39.50;29.20;;;;;;;2.49;76.95;101601.09;110180;1260;22796;-82
2022/01/19 06:31:45;;;;;;;51.90;39.20;;;;;;;2.51;76.91;101595.94;110340;1254;21962;-82
2022/01/19 06:34:17;;;;;;;60.10;46.70;;;;;;;2.52;76.87;101596.56;110762;1254;23032;-82
2022/01/19 06:37:20;;;;;;;41.50;32.60;;;;;;;2.52;76.87;101593.95;110175;1254;22079;-83
2022/01/19 06:40:13;;;;;;;63.00;46.00;;;;;;;2.53;76.95;101590.40;110195;1257;21959;-82
2022/01/19 06:42:44;;;;;;;79.70;56.00;;;;;;;2.55;77.00;101583.64;109157;1264;23144;-81
2022/01/19 06:45:15;;;;;;;90.20;61.50;;;;;;;2.57;76.95;101577.30;108964;1270;22001;-81
2022/01/19 06:47:50;;;;;;;52.10;44.40;;;;;;;2.57;76.90;101576.65;108605;1273;23363;-84
2022/01/19 06:50:24;;;;;;;39.10;30.00;;;;;;;2.59;76.96;101578.26;108235;1282;22013;-81
2022/01/19 06:52:57;;;;;;;40.20;28.70;;;;;;;2.62;76.97;101580.15;108254;1281;22060;-83
2022/01/19 06:55:30;;;;;;;34.20;27.90;;;;;;;2.65;77.04;101577.75;107992;1286;22006;-82
2022/01/19 06:58:02;;;;;;;36.70;27.70;;;;;;;2.68;77.02;101578.10;108011;1281;23059;-82
2022/01/19 07:01:02;;;;;;;36.20;26.40;;;;;;;2.70;76.91;101575.36;108427;1276;24758;-82
2022/01/19 07:04:10;;;;;;;36.20;26.50;;;;;;;2.71;76.84;101567.32;108543;1273;22021;-82
2022/01/19 07:06:40;;;;;;;36.80;27.70;;;;;;;2.73;76.87;101565.48;108321;1279;22101;-81
2022/01/19 07:09:56;;;;;;;41.00;28.30;;;;;;;2.75;76.90;101556.48;108661;1276;22463;-81
2022/01/19 07:12:29;;;;;;;32.90;25.00;;;;;;;2.78;76.96;101554.56;108572;1276;22008;-81
2022/01/19 07:15:00;;;;;;;;;;;;;;;2.82;76.95;101550.14;108981;1270;22919;-81
2022/01/19 07:17:39;;;;;;;34.90;23.40;;;;;;;2.78;76.95;101546.73;109039;1270;23044;-83
2022/01/19 07:20:22;;;;;;;29.70;22.40;;;;;;;2.78;77.07;101546.36;108646;1276;23613;-83
2022/01/19 07:22:56;;;;;;;32.00;22.00;;;;;;;2.82;77.00;101541.98;108681;1276;23616;-84
2022/01/19 07:25:31;;;;;;;28.50;21.00;;;;;;;2.86;76.96;101538.27;108574;1276;21976;-83
2022/01/19 07:28:01;;;;;;;30.90;23.00;;;;;;;2.89;76.92;101529.05;108688;1276;23718;-84
2022/01/19 07:30:33;;;;;;;34.20;25.10;;;;;;;2.93;76.88;101529.52;108290;1276;23710;-83
2022/01/19 07:33:12;;;;;;;32.40;25.60;;;;;;;2.96;76.81;101526.89;108586;1279;22024;-82
2022/01/19 07:36:01;;;;;;;;;;;;;;;;;;;;;
2022/01/19 07:38:30;;;;;;;32.30;25.20;;;;;;;3.00;76.53;101531.52;108377;1273;22023;-83
2022/01/19 07:41:11;;;;;;;31.80;23.40;;;;;;;3.01;76.49;101531.45;108373;1279;22073;-83
2022/01/19 07:43:47;;;;;;;29.00;21.50;;;;;;;3.04;76.53;101525.70;108566;1279;21999;-83
2022/01/19 07:46:48;;;;;;;26.10;20.80;;;;;;;3.06;76.40;101522.48;108987;1267;23124;-83
2022/01/19 07:50:01;;;;;;;28.10;20.50;;;;;;;3.09;76.46;101519.70;109475;1265;21984;-83
2022/01/19 07:52:59;;;;;;;30.60;22.30;;;;;;;3.11;76.40;101516.46;109135;1267;23710;-81
2022/01/19 07:55:49;;;;;;;24.80;20.90;;;;;;;3.15;76.48;101514.98;109173;1267;23637;-84
2022/01/19 07:58:55;;;;;;;;;;;;;;;;;;;;;
2022/01/19 08:01:40;;;;;;;26.60;21.30;;;;;;;3.20;76.25;101502.00;109378;1264;24259;-84
2022/01/19 08:04:31;;;;;;;26.00;23.10;;;;;;;3.25;76.19;101504.11;109325;1263;21979;-83
2022/01/19 08:07:12;;;;;;;27.90;21.80;;;;;;;3.27;76.01;101504.64;109367;1262;21986;-83
2022/01/19 08:09:43;;;;;;;32.60;24.10;;;;;;;3.28;75.89;101500.58;108782;1270;22867;-83
2022/01/19 08:12:17;;;;;;;30.60;22.30;;;;;;;3.31;75.80;101499.77;108481;1273;22809;-83
2022/01/19 08:14:58;;;;;;;29.60;22.30;;;;;;;3.35;76.04;101499.69;109310;1270;22783;-82
2022/01/19 08:17:35;;;;;;;30.50;23.00;;;;;;;3.38;75.74;101499.65;108999;1270;22645;-80
2022/01/19 08:20:11;;;;;;;30.20;22.60;;;;;;;3.38;75.48;101498.48;108870;1269;21985;-81
2022/01/19 08:22:41;;;;;;;27.70;21.10;;;;;;;3.38;75.47;101498.47;108773;1270;23505;-82
2022/01/19 08:25:28;;;;;;;28.70;21.70;;;;;;;3.40;75.38;101495.05;108916;1263;21993;-81
2022/01/19 08:27:57;;;;;;;28.20;19.90;;;;;;;3.38;75.16;101493.75;109791;1260;22135;-82
2022/01/19 08:30:35;;;;;;;30.20;23.00;;;;;;;3.37;75.11;101485.47;108913;1267;23612;-81
2022/01/19 08:33:10;;;;;;;26.10;21.40;;;;;;;3.37;75.09;101481.31;109208;1267;22014;-81
2022/01/19 08:35:51;;;;;;;28.50;22.70;;;;;;;3.36;75.08;101483.77;109003;1265;23627;-82
2022/01/19 08:38:38;;;;;;;27.80;20.50;;;;;;;3.34;74.93;101481.81;109746;1260;23619;-81
2022/01/19 08:41:23;;;;;;;33.50;23.80;;;;;;;3.29;74.87;101477.23;109278;1264;23698;-82
2022/01/19 08:43:54;;;;;;;30.60;25.30;;;;;;;3.27;74.82;101474.38;108993;1267;22023;-82
2022/01/19 08:46:26;;;;;;;32.10;25.40;;;;;;;3.28;74.91;101468.24;108839;1270;23150;-82
2022/01/19 08:49:15;;;;;;;31.20;26.10;;;;;;;3.28;74.91;101461.77;108901;1270;21986;-82
2022/01/19 08:52:06;;;;;;;26.30;23.30;;;;;;;3.28;74.97;101459.90;108906;1270;23057;-81
2022/01/19 08:54:44;;;;;;;27.30;23.10;;;;;;;3.28;74.89;101462.80;108969;1263;21987;-82
2022/01/19 08:57:18;;;;;;;34.70;30.00;;;;;;;3.29;74.88;101456.70;109199;1267;22440;-82
2022/01/19 08:59:51;;;;;;;36.50;30.10;;;;;;;3.29;74.81;101452.70;109413;1263;21991;-81
2022/01/19 09:02:20;;;;;;;39.20;29.20;;;;;;;3.30;74.68;101455.59;108863;1270;23589;-83
2022/01/19 09:04:50;;;;;;;33.20;27.00;;;;;;;3.30;74.63;101454.85;109151;1263;21989;-82
2022/01/19 09:07:20;;;;;;;36.40;29.90;;;;;;;3.29;74.58;101450.89;109046;1267;23302;-82
2022/01/19 09:09:50;;;;;;;37.30;32.20;;;;;;;3.30;74.52;101450.89;108973;1267;23869;-81
2022/01/19 09:12:20;;;;;;;37.40;30.30;;;;;;;3.29;74.48;101442.77;109274;1268;22137;-81
2022/01/19 09:14:58;;;;;;;37.80;33.10;;;;;;;3.28;74.47;101442.10;109163;1266;23085;-82
2022/01/19 09:17:30;;;;;;;37.60;33.50;;;;;;;3.28;74.55;101436.37;108935;1268;22767;-81
2022/01/19 09:20:16;;;;;;;49.90;42.10;;;;;;;3.30;74.52;101431.04;109032;1264;21981;-83
2022/01/19 09:22:49;;;;;;;42.90;38.50;;;;;;;3.32;74.58;101424.65;109482;1260;21995;-82
2022/01/19 09:25:33;;;;;;;;;;;;;;;;;;;;;
2022/01/19 09:28:03;;;;;;;39.50;30.70;;;;;;;3.33;74.42;101415.89;109328;1263;22065;-81
2022/01/19 09:30:40;;;;;;;34.50;30.70;;;;;;;3.32;74.44;101409.84;108811;1270;21988;-81
2022/01/19 09:33:20;;;;;;;38.80;31.30;;;;;;;3.34;74.35;101409.75;108819;1270;23781;-82
2022/01/19 09:38:38;;;;;;;34.50;30.80;;;;;;;3.35;74.42;101402.70;108763;1270;22014;-83
2022/01/19 09:41:17;;;;;;;38.90;32.00;;;;;;;3.35;74.44;101400.27;108830;1270;22030;-82
2022/01/19 09:43:47;;;;;;;40.30;33.90;;;;;;;3.35;74.39;101398.16;108974;1266;21989;-81
2022/01/19 09:46:22;;;;;;;42.60;34.80;;;;;;;3.36;74.38;101400.00;108970;1266;23710;-79
2022/01/19 09:48:53;;;;;;;40.90;32.90;;;;;;;3.37;74.33;101388.27;109464;1260;22070;-80
2022/01/19 09:51:27;;;;;;;41.00;34.10;;;;;;;3.36;74.24;101388.02;108910;1267;21999;-79
2022/01/19 09:54:00;;;;;;;45.20;38.50;;;;;;;3.35;74.26;101386.69;109903;1257;23843;-80
2022/01/19 09:56:32;;;;;;;45.00;37.70;;;;;;;3.33;74.20;101378.11;109516;1261;21982;-80
2022/01/19 09:59:02;;;;;;;39.20;35.00;;;;;;;3.32;74.28;101375.38;109125;1267;23038;-80
2022/01/19 10:01:49;;;;;;;43.80;37.60;;;;;;;3.36;74.42;101373.23;109115;1267;21988;-80
2022/01/19 10:04:26;;;;;;;44.20;34.50;;;;;;;3.40;74.40;101369.84;108946;1270;21976;-79
2022/01/19 10:07:17;;;;;;;;;;;;;;;3.39;74.24;101366.23;108733;1276;23287;-83
2022/01/19 10:10:11;;;;;;;43.80;37.40;;;;;;;3.34;74.43;101363.60;108742;1273;23634;-84
2022/01/19 10:19:26;;;;;;;56.50;44.20;;;;;;;3.45;74.37;101347.77;110008;1261;22100;-82
2022/01/19 10:22:36;;;;;;;48.60;40.20;;;;;;;3.48;74.38;101345.09;109859;1257;21946;-86
2022/01/19 10:25:20;;;;;;;45.10;36.40;;;;;;;3.52;74.25;101343.81;110140;1254;22005;-84
2022/01/19 10:27:53;;;;;;;39.10;33.60;;;;;;;3.52;74.07;101337.15;110005;1257;21973;-84
2022/01/19 10:30:38;;;;;;;40.20;35.20;;;;;;;3.55;74.12;101332.33;109568;1264;23683;-83
2022/01/19 10:33:19;;;;;;;49.10;40.20;;;;;;;3.59;74.21;101331.72;108833;1270;23022;-81
2022/01/19 10:35:57;;;;;;;46.30;38.00;;;;;;;3.61;74.06;101325.48;108932;1270;22501;-83
2022/01/19 10:38:41;;;;;;;42.40;37.10;;;;;;;3.62;74.13;101324.73;108612;1275;22146;-83
2022/01/19 10:41:21;;;;;;;62.20;50.10;;;;;;;3.67;74.16;101317.95;108591;1279;23607;-83
2022/01/19 10:43:57;;;;;;;50.80;40.90;;;;;;;3.72;74.10;101312.89;108237;1285;22016;-83
2022/01/19 10:47:02;;;;;;;;;;;;;;;;;;;;;
2022/01/19 10:50:55;;;;;;;46.10;40.30;;;;;;;3.73;73.86;101304.47;111258;1260;23764;-86
2022/01/19 10:53:30;;;;;;;44.00;38.70;;;;;;;3.78;74.05;101295.44;109852;1263;21989;-85
2022/01/19 10:56:34;;;;;;;40.10;32.20;;;;;;;3.86;74.12;101284.46;110039;1263;21997;-85
2022/01/19 10:59:22;;;;;;;40.20;35.80;;;;;;;3.93;73.99;101275.80;109678;1270;21991;-85
2022/01/19 11:02:00;;;;;;;34.60;31.00;;;;;;;3.99;73.79;101265.46;109724;1270;22925;-85
2022/01/19 11:04:42;;;;;;;39.30;31.70;;;;;;;4.01;73.49;101258.18;109684;1270;23094;-86
2022/01/19 11:07:23;;;;;;;41.50;36.00;;;;;;;4.04;73.56;101256.05;109529;1267;22000;-84
2022/01/19 11:10:22;;;;;;;40.80;36.70;;;;;;;4.11;73.66;101257.48;109608;1270;24554;-84
2022/01/19 11:12:56;;;;;;;45.00;34.70;;;;;;;4.19;73.56;101254.31;109586;1270;23082;-84
2022/01/19 11:15:28;;;;;;;36.20;32.20;;;;;;;4.27;73.44;101247.54;109757;1269;23070;-84
2022/01/19 11:18:05;;;;;;;39.60;35.00;;;;;;;4.33;73.26;101237.89;109878;1264;22037;-84
2022/01/19 11:20:50;;;;;;;36.10;32.00;;;;;;;4.42;73.38;101236.39;109827;1267;23157;-84
2022/01/19 11:23:56;;;;;;;37.70;31.70;;;;;;;4.53;73.34;101233.67;109588;1270;21989;-85
2022/01/19 11:26:35;;;;;;;37.50;31.80;;;;;;;4.55;72.69;101225.67;108719;1275;22004;-79
2022/01/19 11:29:20;;;;;;;44.30;39.60;;;;;;;4.56;72.56;101221.98;108078;1283;24341;-81
2022/01/19 11:31:56;;;;;;;40.00;34.80;;;;;;;4.59;72.46;101215.13;108091;1284;22089;-81
2022/01/19 11:34:53;;;;;;;37.50;33.50;;;;;;;4.58;72.29;101210.48;107994;1284;22017;-81
2022/01/19 11:37:53;;;;;;;;;;;;;;;;;;;;;
2022/01/19 11:40:43;;;;;;;45.30;40.40;;;;;;;4.58;72.30;101201.05;108239;1281;22011;-79
2022/01/19 11:43:29;;;;;;;40.10;36.00;;;;;;;4.58;72.12;101190.24;107925;1287;22017;-79
2022/01/19 11:46:25;;;;;;;40.70;36.30;;;;;;;4.54;71.85;101180.41;108208;1278;23607;-83
2022/01/19 11:49:17;;;;;;;40.10;33.70;;;;;;;4.53;71.97;101171.76;108453;1276;21966;-84
2022/01/19 11:52:00;;;;;;;30.20;26.90;;;;;;;4.54;72.03;101166.60;108506;1276;22010;-83
2022/01/19 11:54:34;;;;;;;32.30;28.70;;;;;;;4.50;71.55;101165.15;108566;1275;23434;-86
2022/01/19 11:57:18;;;;;;;39.30;32.50;;;;;;;4.47;71.59;101161.37;109069;1270;22078;-84
2022/01/19 11:59:51;;;;;;;44.00;34.00;;;;;;;4.45;71.61;101150.86;108760;1270;22002;-84
2022/01/19 12:02:32;;;;;;;40.80;33.20;;;;;;;4.46;71.75;101146.59;109157;1270;22014;-85
2022/01/19 12:05:55;;;;;;;42.30;37.70;;;;;;;4.45;71.59;101137.78;110870;1259;21940;-85
2022/01/19 12:09:00;;;;;;;46.50;41.00;;;;;;;4.45;71.71;101132.05;110291;1260;22033;-85
2022/01/19 12:12:20;;;;;;;39.10;32.30;;;;;;;4.47;71.72;101127.00;110613;1260;21986;-84
2022/01/19 12:14:53;;;;;;;37.00;30.80;;;;;;;4.47;71.59;101119.84;110104;1260;23050;-84
2022/01/19 12:17:57;;;;;;;36.10;30.70;;;;;;;4.51;71.58;101117.51;109767;1260;21983;-84
2022/01/19 12:20:51;;;;;;;57.80;44.80;;;;;;;4.49;71.47;101114.98;109453;1267;23758;-84
2022/01/19 12:23:34;;;;;;;39.20;33.70;;;;;;;4.52;71.81;101106.05;109566;1267;21999;-83
2022/01/19 12:26:25;;;;;;;;;;;;;;;;;;;;;
2022/01/19 12:29:38;;;;;;;33.90;29.30;;;;;;;4.62;71.36;101092.27;109410;1267;22531;-86
2022/01/19 12:32:23;;;;;;;34.40;27.30;;;;;;;4.59;71.29;101084.08;109310;1270;21988;-85
2022/01/19 12:35:07;;;;;;;32.60;28.60;;;;;;;4.63;71.61;101077.55;109276;1270;22454;-84
2022/01/19 12:38:03;;;;;;;39.70;33.80;;;;;;;4.69;71.65;101067.31;109344;1269;21959;-85
2022/01/19 12:41:00;;;;;;;31.70;28.10;;;;;;;4.75;71.32;101060.41;109362;1270;22509;-85
2022/01/19 12:43:37;;;;;;;38.20;33.50;;;;;;;4.68;70.82;101052.35;109370;1267;23631;-85
2022/01/19 12:46:14;;;;;;;49.00;38.70;;;;;;;4.67;70.96;101048.58;110017;1260;21971;-84
2022/01/19 12:48:50;;;;;;;36.50;29.40;;;;;;;4.68;70.74;101038.27;110171;1260;21943;-84
2022/01/19 12:52:02;;;;;;;35.00;31.30;;;;;;;4.68;70.78;101030.95;110212;1260;22074;-85
2022/01/19 12:55:00;;;;;;;;;;;;;;;;;;;;;
2022/01/19 12:57:40;;;;;;;38.20;30.80;;;;;;;4.61;70.77;101021.50;110071;1260;23113;-85
2022/01/19 13:00:42;;;;;;;34.70;30.90;;;;;;;4.64;70.82;101016.70;109803;1260;21965;-85
2022/01/19 13:03:26;;;;;;;41.80;31.50;;;;;;;4.66;70.78;101011.55;110392;1260;22038;-85
2022/01/19 13:06:16;;;;;;;40.30;33.90;;;;;;;4.62;70.58;101005.88;110176;1260;21954;-85
2022/01/19 13:09:08;;;;;;;38.60;31.50;;;;;;;4.61;70.70;101003.54;110175;1260;23160;-86
2022/01/19 13:11:49;;;;;;;40.20;28.90;;;;;;;4.58;70.55;100992.26;110105;1260;21989;-86
2022/01/19 13:14:29;;;;;;;44.30;32.10;;;;;;;4.57;70.62;100989.35;110427;1260;22920;-85
2022/01/19 13:17:05;;;;;;;38.90;32.40;;;;;;;4.58;70.50;100985.95;110163;1260;23762;-86
2022/01/19 13:19:38;;;;;;;34.90;30.50;;;;;;;4.56;70.39;100983.80;110020;1260;24322;-85
2022/01/19 13:22:13;;;;;;;36.80;32.80;;;;;;;4.57;70.54;100983.12;110281;1259;21988;-86
2022/01/19 13:24:46;;;;;;;37.90;33.40;;;;;;;4.60;70.66;100977.13;110314;1260;21991;-86
2022/01/19 13:27:26;;;;;;;39.60;33.30;;;;;;;4.63;70.40;100973.41;109929;1264;22021;-86
2022/01/19 13:30:00;;;;;;;39.00;29.40;;;;;;;4.62;70.26;100969.28;110035;1264;22000;-86
2022/01/19 13:32:46;;;;;;;36.40;31.30;;;;;;;4.61;70.11;100968.30;109782;1264;22066;-85
2022/01/19 13:35:37;;;;;;;39.10;33.60;;;;;;;4.60;70.21;100967.66;109573;1270;23712;-84
2022/01/19 13:38:38;;;;;;;;;;;;;;;;;;;;;
2022/01/19 13:41:41;;;;;;;38.70;31.40;;;;;;;4.60;70.20;100957.41;109486;1273;24654;-86
2022/01/19 13:44:39;;;;;;;35.50;30.60;;;;;;;4.59;70.18;100950.84;109155;1276;22013;-84
2022/01/19 13:48:33;;;;;;;41.80;31.30;;;;;;;4.57;70.15;100945.77;109323;1275;22008;-87
2022/01/19 13:51:37;;;;;;;41.40;35.90;;;;;;;4.59;70.44;100933.88;109652;1274;22406;-87
2022/01/19 13:54:30;;;;;;;46.30;37.50;;;;;;;4.68;70.73;100925.56;109719;1272;21965;-87
2022/01/19 13:57:12;;;;;;;54.30;38.40;;;;;;;4.76;70.83;100920.79;110299;1261;22133;-86
2022/01/19 13:59:58;;;;;;;;;;;;;;;;;;;;;
2022/01/19 14:03:13;;;;;;;59.00;47.50;;;;;;;4.88;70.49;100911.31;110071;1263;22000;-85